createdAt,value
2022-11-02T00:01:37.967Z,15.15
2022-11-02T00:04:25.867Z,15.90
2022-11-02T00:07:15.951Z,20.48
2022-11-02T00:10:03.935Z,19.10
2022-11-02T00:12:52.417Z,15.27
2022-11-02T00:15:40.468Z,16.07
2022-11-02T00:18:28.836Z,17.05
2022-11-02T00:21:19.052Z,17.20
2022-11-02T00:24:10.071Z,17.57
2022-11-02T00:26:58.715Z,18.05
2022-11-02T00:29:46.230Z,18.63
2022-11-02T00:32:33.903Z,19.85
2022-11-02T00:35:21.768Z,18.07
2022-11-02T00:38:09.548Z,20.00
2022-11-02T00:40:58.518Z,15.73
2022-11-02T00:43:46.120Z,17.03
2022-11-02T00:46:33.900Z,16.50
2022-11-02T00:49:21.518Z,16.07
2022-11-02T00:52:09.339Z,20.20
2022-11-02T00:54:57.251Z,21.10
2022-11-02T02:13:32.040Z,16.33
2022-11-02T02:16:31.170Z,21.57
2022-11-02T02:19:37.334Z,17.63
2022-11-02T02:23:11.742Z,18.20
2022-11-02T02:26:22.686Z,16.20
2022-11-02T02:37:51.171Z,27.25
2022-11-02T07:19:49.672Z,33.10
2022-11-02T07:33:49.632Z,41.93
2022-11-02T07:36:37.693Z,37.83
2022-11-02T07:39:26.304Z,35.53
2022-11-02T07:42:13.906Z,34.40
2022-11-02T07:45:04.292Z,34.97
2022-11-02T07:47:52.260Z,37.33
2022-11-02T07:50:41.220Z,33.50
2022-11-02T07:53:28.720Z,37.10
2022-11-02T07:56:16.478Z,41.47
2022-11-02T07:59:04.315Z,41.78
2022-11-02T08:01:51.922Z,42.53
2022-11-02T08:04:42.344Z,35.70
2022-11-02T08:07:34.109Z,33.85
2022-11-02T08:10:21.591Z,34.08
2022-11-02T08:13:15.195Z,26.17
2022-11-02T08:16:02.882Z,26.20
2022-11-02T13:28:07.422Z,3.22
2022-11-02T13:30:56.617Z,7.15
2022-11-02T13:33:48.896Z,5.07
2022-11-02T13:36:40.664Z,5.03
2022-11-02T13:39:35.363Z,6.80
2022-11-02T13:42:48.503Z,4.28
2022-11-02T13:45:53.457Z,7.93
2022-11-02T13:48:54.317Z,6.93
2022-11-02T13:51:46.806Z,8.82
2022-11-02T13:54:37.763Z,5.57
2022-11-02T13:57:36.000Z,8.13
2022-11-02T14:00:35.538Z,5.90
2022-11-02T14:03:26.345Z,6.43
2022-11-02T14:06:17.043Z,4.32
2022-11-02T14:09:08.856Z,8.65
2022-11-02T14:12:29.279Z,5.45
2022-11-02T14:15:56.216Z,4.80
2022-11-02T14:18:44.027Z,5.35
2022-11-02T14:21:43.368Z,4.93
2022-11-02T14:25:06.561Z,5.25
2022-11-02T14:34:02.167Z,6.47
2022-11-02T14:37:06.040Z,6.93
2022-11-02T14:40:02.181Z,7.03
2022-11-02T14:43:25.236Z,6.57
2022-11-02T14:46:23.353Z,5.65
2022-11-02T14:49:20.878Z,5.43
2022-11-02T15:03:44.891Z,3.13
2022-11-02T15:06:32.785Z,7.63
2022-11-02T15:09:56.089Z,4.28
2022-11-02T15:12:46.636Z,4.25
2022-11-02T15:15:35.847Z,5.10
2022-11-02T15:18:32.785Z,4.63
2022-11-02T15:21:27.824Z,7.07
2022-11-02T15:24:20.009Z,6.85
2022-11-02T15:27:08.556Z,6.60
2022-11-02T15:30:02.517Z,5.70
2022-11-02T15:32:57.612Z,4.57
2022-11-02T15:35:51.712Z,7.00
2022-11-02T15:38:40.504Z,5.75
2022-11-02T15:41:39.846Z,6.38
2022-11-02T15:45:20.352Z,7.88
2022-11-02T15:48:34.559Z,4.55
2022-11-02T15:51:28.170Z,5.03
2022-11-02T15:54:27.858Z,5.43
2022-11-02T15:57:27.117Z,7.78
2022-11-02T16:00:19.362Z,4.40
2022-11-02T16:03:09.680Z,5.30
2022-11-02T16:06:03.341Z,5.30
2022-11-02T16:08:53.506Z,4.93
2022-11-02T16:11:41.252Z,4.68
2022-11-02T16:14:32.311Z,5.95
2022-11-02T16:17:21.452Z,5.33
2022-11-02T16:31:31.254Z,5.00
2022-11-02T16:34:22.303Z,6.65
2022-11-02T16:37:14.425Z,5.15
2022-11-02T16:40:03.810Z,6.20
2022-11-02T16:42:54.408Z,4.45
2022-11-02T16:45:44.008Z,5.30
2022-11-02T16:48:33.989Z,7.82
2022-11-02T16:51:21.913Z,6.03
2022-11-02T16:54:27.563Z,5.82
2022-11-02T16:57:20.292Z,4.47
2022-11-02T17:31:36.429Z,6.60
2022-11-02T17:40:12.900Z,3.95
